Latest Weather Observations for Devonport Airport

IDT60801

Issued at 6:05 pm EST Saturday 2 August 2014 (issued every 30 minutes, with the page automatically refreshed every 10 minutes)

About weather observations | Map of weather stations | Latest weather observations for TAS | Other Formats
Station Details ID: 091126 Name: DEVONPORT AIRPORT Lat: -41.17 Lon: 146.43 Height: 8.0 m
Data from the previous 72 hours. | See also: Recent months at Devonport Airport
Date/Time
EST
Temp
°C
App
Temp
°C
Dew
Point
Rel
Hum
%
Delta-T
°C
Wind Press
QNH
hPa
Press
MSL
hPa
Rain
since 9 am
mm
Dir
 
Spd
km/h
Gust
km/h
Spd
kts
Gust
kts
02/06:00pm 6.7 3.8 2.4 74 1.8 WSW 7 11 4 6 1028.5 1028.5 0.0
02/05:30pm 7.7 3.4 3.0 72 2.0 WSW 15 19 8 10 1028.1 - 0.0
02/05:00pm 8.9 5.4 3.5 69 2.3 W 11 17 6 9 1027.7 1027.7 0.0
02/04:30pm 10.3 5.7 3.6 63 2.9 WSW 17 26 9 14 1027.4 - 0.0
02/04:00pm 10.9 4.6 3.9 62 3.1 W 26 33 14 18 1027.0 1027.0 0.0
02/03:30pm 11.1 5.5 3.6 60 3.3 WSW 22 30 12 16 1026.8 - 0.0
02/03:00pm 11.0 3.5 3.3 59 3.3 W 32 37 17 20 1026.6 1026.6 0.0
02/02:30pm 11.4 5.2 4.4 62 3.2 W 26 37 14 20 1026.4 - 0.0
02/02:00pm 11.1 4.4 3.6 60 3.3 WSW 28 35 15 19 1026.1 1026.1 0.0
02/01:30pm 11.1 4.1 4.3 63 3.0 W 30 41 16 22 1026.2 - 0.0
02/01:00pm 11.3 5.1 4.5 63 3.0 WSW 26 35 14 19 1026.3 1026.3 0.0
02/12:30pm 11.0 4.4 4.2 63 3.0 SW 28 37 15 20 1026.5 - 0.0
02/12:00pm 10.3 3.6 3.8 64 2.8 WSW 28 41 15 22 1026.8 1026.8 0.0
02/11:30am 10.0 3.6 3.3 63 2.9 WSW 26 37 14 20 1026.9 - 0.0
02/11:00am 9.7 4.7 3.7 66 2.6 W 19 24 10 13 1027.1 1027.1 0.0
02/10:30am 9.9 6.2 4.3 68 2.5 WNW 13 19 7 10 1026.7 - 0.0
02/10:00am 8.1 2.8 3.2 71 2.1 WNW 20 28 11 15 1026.2 1026.2 0.0
02/09:30am 7.7 4.4 2.4 69 2.2 SW 9 13 5 7 1026.1 - 0.0
02/09:00am 6.8 3.0 1.9 71 2.0 WSW 11 20 6 11 1025.6 1025.6 0.4
02/08:30am 5.2 0.4 0.4 71 1.8 SW 15 20 8 11 1025.4 - 0.4
02/08:00am 4.6 0.8 -0.4 70 1.9 SW 9 13 5 7 1025.0 1025.0 0.4
02/07:30am 1.4 -2.0 -2.0 78 1.2 SW 6 13 3 7 1024.8 - 0.4
02/07:00am 2.5 -1.4 -1.3 76 1.3 W 9 11 5 6 1024.0 1024.0 0.4
02/06:30am 1.9 -1.1 -1.7 77 1.3 SE 4 11 2 6 1023.5 - 0.4
02/06:00am 1.4 -2.3 -2.7 74 1.4 E 7 11 4 6 1022.7 1022.7 0.4
02/05:30am 3.2 -0.1 -1.0 74 1.5 E 6 9 3 5 1022.5 - 0.4
02/05:00am 1.2 -2.2 -2.4 77 1.3 ESE 6 7 3 4 1022.2 1022.2 0.4
02/04:30am 2.9 -0.5 -0.9 76 1.4 S 7 11 4 6 1021.9 - 0.4
02/04:00am 1.8 -1.1 -1.3 80 1.1 SSE 4 7 2 4 1021.6 1021.6 0.4
02/03:30am 0.2 -3.5 -3.2 78 1.1 SSE 7 11 4 6 1021.3 - 0.4
02/03:00am 1.2 -2.4 -2.2 78 1.2 SSE 7 9 4 5 1021.0 1021.0 0.4
02/02:30am 1.0 -2.7 -2.9 75 1.4 ESE 7 11 4 6 1020.7 - 0.4
02/02:00am 3.3 -0.6 -1.8 69 1.8 WSW 9 15 5 8 1020.2 1020.2 0.4
02/01:30am 4.4 0.1 -1.8 64 2.2 SW 11 13 6 7 1019.7 - 0.4
02/01:00am 3.8 0.3 -1.4 69 1.9 WSW 7 11 4 6 1019.2 1019.2 0.4
02/12:30am 3.0 -0.9 -1.4 73 1.6 W 9 11 5 6 1018.7 - 0.4
02/12:00am 3.5 0.2 -0.9 73 1.6 SSW 6 9 3 5 1018.2 1018.2 0.4
 
Date/Time
EST
Temp
°C
App
Temp
°C
Dew
Point
Rel
Hum
%
Delta-T
°C
Wind Press
QNH
hPa
Press
MSL
hPa
Rain
since 9 am
mm
Dir
 
Spd
km/h
Gust
km/h
Spd
kts
Gust
kts
01/11:30pm 2.0 -2.7 -2.0 75 1.4 ESE 13 17 7 9 1017.5 - 0.4
01/11:00pm 3.5 -0.7 -1.1 72 1.7 E 11 15 6 8 1016.7 1016.8 0.4
01/10:30pm 4.5 -0.4 -0.5 70 1.9 SW 15 19 8 10 1016.2 - 0.4
01/10:00pm 5.5 0.3 0.3 69 2.0 SW 17 24 9 13 1015.5 1015.6 0.4
01/09:30pm 5.5 0.6 -0.3 66 2.2 SW 15 19 8 10 1014.9 - 0.4
01/09:00pm 4.4 -0.5 -0.2 72 1.7 SW 15 17 8 9 1013.9 1014.0 0.4
01/08:30pm 5.2 0.4 0.0 69 2.0 SW 15 20 8 11 1013.1 - 0.4
01/08:00pm 6.4 2.8 0.7 67 2.2 SW 9 15 5 8 1012.5 1012.6 0.4
01/07:30pm 5.8 1.2 1.7 75 1.6 WSW 15 17 8 9 1011.3 - 0.4
01/07:00pm 6.5 3.0 1.4 70 2.0 WSW 9 13 5 7 1010.3 1010.4 0.4
01/06:30pm 5.7 2.7 2.2 78 1.4 SW 7 11 4 6 1009.4 - 0.4
01/06:00pm 5.8 2.8 2.1 77 1.5 SSE 7 9 4 5 1008.4 1008.5 0.4
01/05:30pm 6.4 3.1 2.3 75 1.7 W 9 13 5 7 1007.2 - 0.4
01/05:00pm 7.3 4.3 2.2 70 2.1 SSW 7 7 4 4 1006.1 1006.2 0.4
01/04:30pm 7.1 3.8 2.4 72 1.9 SE 9 17 5 9 1004.8 - 0.4
01/04:00pm 7.6 2.7 2.3 69 2.2 S 17 20 9 11 1003.9 1003.9 0.4
01/03:30pm 7.5 1.0 2.8 72 2.0 S 26 39 14 21 1002.4 - 0.4
01/03:00pm 7.1 0.0 3.7 79 1.5 SSW 30 43 16 23 1001.3 1001.3 0.4
01/02:36pm 7.8 -0.3 3.3 73 1.9 S 35 54 19 29 999.8 - 0.2
01/02:30pm 8.7 0.6 3.5 70 2.2 S 35 52 19 28 999.3 - 0.0
01/02:29pm 8.7 0.2 3.1 68 2.4 S 37 52 20 28 999.1 - 0.0
01/02:03pm 8.8 1.8 2.2 63 2.8 SW 28 46 15 25 998.1 - 0.0
01/02:00pm 8.6 0.8 2.0 63 2.8 SW 32 48 17 26 998.0 998.0 0.0
01/01:49pm 8.5 1.0 1.4 61 2.9 SW 30 48 16 26 997.5 - 0.0
01/01:45pm 8.7 2.6 2.7 66 2.5 SW 24 28 13 15 997.5 - 0.0
01/01:30pm 9.2 0.5 2.3 62 2.9 W 37 48 20 26 997.1 - 0.0
01/01:20pm 9.6 2.7 2.7 62 2.9 W 28 46 15 25 997.2 - 0.0
01/01:00pm 9.9 2.5 3.9 66 2.7 W 32 43 17 23 997.4 997.4 0.0
01/12:30pm 10.0 2.5 3.7 65 2.8 W 32 43 17 23 997.1 - 0.0
01/12:00pm 10.0 3.1 4.8 70 2.4 W 30 39 16 21 997.1 997.1 0.0
01/11:30am 9.0 2.0 4.0 71 2.2 WNW 30 35 16 19 996.9 - 0.0
01/11:00am 8.7 2.8 3.9 72 2.1 WNW 24 32 13 17 996.9 996.9 0.0
01/10:30am 7.6 2.9 2.9 72 2.0 WNW 17 22 9 12 996.4 - 0.0
01/10:00am 6.9 2.2 3.2 77 1.6 W 17 22 9 12 996.2 996.2 0.0
01/09:30am 6.6 2.8 3.9 83 1.2 W 13 20 7 11 996.1 - 0.0
01/09:00am 6.0 0.8 3.5 84 1.1 W 20 26 11 14 995.9 995.9 4.6
01/08:30am 4.6 -0.2 2.5 86 0.8 W 17 19 9 10 995.1 - 4.6
01/08:00am 4.8 0.8 2.7 86 0.9 WSW 13 17 7 9 994.9 994.9 4.6
01/07:30am 4.7 1.8 2.4 85 0.9 WSW 7 9 4 5 994.3 - 4.6
01/07:00am 5.1 1.8 2.6 84 1.0 SSW 9 17 5 9 994.1 994.1 4.6
01/06:30am 5.6 3.0 3.1 84 1.0 SSW 6 17 3 9 993.7 - 4.4
01/06:00am 5.1 2.1 2.3 82 1.1 SW 7 9 4 5 993.2 993.2 4.4
01/05:30am 5.3 1.2 2.5 82 1.1 WSW 13 15 7 8 993.0 - 4.4
01/05:00am 6.0 0.7 2.8 80 1.3 W 20 28 11 15 992.7 992.7 4.4
01/04:30am 6.6 -0.5 3.4 80 1.3 WNW 30 37 16 20 992.6 - 4.4
01/04:00am 6.1 -0.7 2.9 80 1.3 W 28 33 15 18 993.1 993.1 4.2
01/03:30am 6.2 0.6 3.2 81 1.3 W 22 33 12 18 993.2 - 4.2
01/03:00am 6.0 -0.5 2.8 80 1.3 W 26 37 14 20 993.4 993.4 4.2
01/02:31am 6.8 -0.4 3.2 78 1.5 W 30 50 16 27 993.3 - 4.2
01/02:30am 6.7 -0.1 3.3 79 1.4 W 28 35 15 19 993.3 - 4.2
01/02:00am 6.4 -0.1 2.9 78 1.5 WNW 26 35 14 19 992.8 992.8 4.2
01/01:30am 6.2 -2.0 2.8 79 1.4 W 35 44 19 24 992.7 - 4.2
01/01:00am 6.6 -2.3 3.2 79 1.4 WNW 39 50 21 27 992.3 992.3 4.2
01/12:30am 6.6 -4.1 2.7 76 1.6 W 48 61 26 33 992.2 - 4.2
01/12:00am 6.6 -3.3 2.7 76 1.6 W 44 59 24 32 991.9 991.9 4.2
 
Date/Time
EST
Temp
°C
App
Temp
°C
Dew
Point
Rel
Hum
%
Delta-T
°C
Wind Press
QNH
hPa
Press
MSL
hPa
Rain
since 9 am
mm
Dir
 
Spd
km/h
Gust
km/h
Spd
kts
Gust
kts
31/11:30pm 7.1 -3.9 2.8 74 1.8 WNW 50 61 27 33 991.5 - 4.2
31/11:00pm 7.0 -2.8 3.1 76 1.7 WNW 44 54 24 29 991.2 991.2 4.2
31/10:31pm 6.9 -2.4 2.8 75 1.7 WNW 41 63 22 34 991.2 - 4.2
31/10:30pm 6.8 -2.1 2.9 76 1.6 W 39 54 21 29 991.3 - 4.2
31/10:00pm 6.2 -1.3 3.5 83 1.1 W 32 41 17 22 991.0 991.0 4.2
31/09:36pm 6.6 -3.2 3.2 79 1.4 W 44 67 24 36 990.7 - 4.0
31/09:30pm 7.0 -2.3 3.1 76 1.6 W 41 57 22 31 990.8 - 3.8
31/09:26pm 6.7 -1.5 2.8 76 1.6 W 35 57 19 31 990.5 - 3.8
31/09:00pm 6.6 -1.0 2.7 76 1.6 W 32 44 17 24 989.9 989.9 3.8
31/08:30pm 8.9 -2.7 4.1 72 2.1 WNW 54 72 29 39 989.0 - 3.8
31/08:20pm 8.7 -1.0 3.7 71 2.2 WNW 44 65 24 35 988.7 - 3.8
31/08:00pm 8.4 -1.7 3.5 71 2.1 WNW 46 57 25 31 988.7 988.7 3.8
31/07:30pm 8.6 -2.7 3.6 71 2.2 WNW 52 63 28 34 988.7 - 3.8
31/07:00pm 8.4 -1.3 4.0 74 1.9 WNW 44 65 24 35 988.3 988.3 3.8
31/06:59pm 8.3 -1.3 4.3 76 1.7 WNW 44 65 24 35 988.4 - 3.8
31/06:43pm 7.7 -1.7 4.5 80 1.4 WNW 43 54 23 29 988.3 - 3.8
31/06:30pm 7.4 -4.3 3.6 77 1.6 W 54 76 29 41 988.8 - 3.6
31/06:28pm 7.6 -4.1 3.6 76 1.7 W 54 76 29 41 988.5 - 3.6
31/06:23pm 8.0 -2.6 3.3 72 2.0 W 48 76 26 41 988.4 - 3.4
31/06:22pm 8.9 -0.2 3.9 71 2.2 W 41 50 22 27 988.5 - 3.4
31/06:00pm 9.3 -1.5 4.3 71 2.2 WNW 50 61 27 33 987.4 987.4 3.4
31/05:30pm 9.4 -0.1 5.0 74 2.0 WNW 44 56 24 30 987.5 - 3.4
31/05:00pm 9.4 -1.6 4.8 73 2.1 WNW 52 70 28 38 987.0 987.0 3.4
31/04:30pm 10.2 -0.8 5.0 70 2.3 WNW 52 74 28 40 986.4 - 3.4
31/04:23pm 10.4 0.7 6.0 74 2.0 WNW 46 69 25 37 986.2 - 3.4
31/04:00pm 10.0 0.3 5.8 75 2.0 NW 46 63 25 34 986.2 986.2 3.4
31/03:34pm 8.9 -2.7 6.0 82 1.3 WNW 56 80 30 43 987.0 - 3.4
31/03:31pm 8.8 -2.7 6.1 83 1.2 WNW 56 76 30 41 986.9 - 3.4
31/03:30pm 8.7 -2.8 6.3 85 1.1 WNW 56 72 30 39 987.2 - 3.4
31/03:15pm 9.0 -0.4 7.1 88 0.9 WNW 46 65 25 35 987.0 - 3.0
31/03:05pm 9.0 0.0 6.6 85 1.1 WNW 43 56 23 30 986.8 - 2.6
31/03:00pm 9.2 0.6 6.5 83 1.3 WNW 41 56 22 30 986.7 986.7 2.4
31/02:54pm 9.5 1.7 6.6 82 1.4 WNW 37 56 20 30 986.2 - 2.2
31/02:30pm 10.0 0.0 6.2 77 1.8 WNW 48 57 26 31 985.0 - 2.2
31/02:00pm 10.2 2.9 7.4 83 1.4 WNW 35 48 19 26 985.4 985.4 2.2
31/01:50pm 10.0 2.0 7.4 84 1.2 W 39 50 21 27 985.5 - 2.2
31/01:30pm 10.4 2.6 8.2 86 1.1 W 39 52 21 28 985.5 - 2.0
31/01:19pm 11.3 2.3 8.9 85 1.2 WNW 46 61 25 33 984.6 - 1.2
31/01:17pm 11.4 2.4 9.0 85 1.2 WNW 46 61 25 33 984.6 - 1.2
31/01:00pm 11.8 2.0 10.0 89 0.9 NW 52 72 28 39 983.1 983.1 0.8
31/12:54pm 11.3 0.3 9.0 86 1.1 NW 57 76 31 41 983.4 - 0.8
31/12:50pm 11.7 -0.2 8.7 82 1.5 NW 61 76 33 41 983.3 - 0.6
31/12:45pm 13.3 0.0 9.9 80 1.7 NNW 70 95 38 51 982.3 - 0.2
31/12:30pm 13.8 0.1 9.8 77 2.1 NNW 72 98 39 53 983.2 - 0.2
31/12:00pm 13.8 0.1 9.6 76 2.2 NNW 72 95 39 51 984.2 984.2 0.2
31/11:30am 13.7 0.4 9.9 78 2.0 NNW 70 91 38 49 985.7 - 0.2
31/11:00am 14.1 1.0 9.9 76 2.2 NNW 69 91 37 49 986.4 986.4 0.2
31/10:30am 13.7 1.1 10.3 80 1.8 NNW 67 87 36 47 987.5 - 0.2
31/10:22am 13.6 0.6 10.2 80 1.8 NNW 69 96 37 52 987.6 - 0.2
31/10:00am 13.2 1.1 10.6 84 1.4 NNW 65 89 35 48 987.9 987.9 0.2
31/09:52am 13.2 0.3 10.6 84 1.4 NNW 69 89 37 48 988.1 - 0.0
31/09:32am 13.7 1.1 10.3 80 1.8 NNW 67 85 36 46 988.4 - 0.0
31/09:30am 13.7 0.8 10.5 81 1.7 NNW 69 85 37 46 988.2 - 0.0
31/09:00am 13.5 1.4 10.7 83 1.5 NNW 65 83 35 45 989.3 989.3 25.0
31/08:42am 13.4 3.0 10.8 84 1.4 NNW 56 74 30 40 989.5 - 25.0
31/08:30am 13.8 3.2 10.6 81 1.7 NNW 57 74 31 40 990.0 - 25.0
31/08:00am 13.7 2.7 10.5 81 1.7 NW 59 82 32 44 990.5 990.5 25.0
31/07:35am 13.5 3.0 10.9 84 1.4 NNW 57 76 31 41 990.8 - 25.0
31/07:30am 13.4 3.0 10.8 84 1.4 NNW 56 72 30 39 991.1 - 25.0
31/07:00am 13.3 1.5 10.5 83 1.5 NNW 63 85 34 46 991.3 991.3 25.0
31/06:34am 13.5 3.3 11.4 87 1.1 NW 56 76 30 41 991.3 - 25.0
31/06:31am 13.4 3.6 11.6 89 1.0 NW 54 72 29 39 991.4 - 25.0
31/06:30am 13.3 3.9 11.5 89 1.0 NW 52 69 28 37 991.4 - 25.0
31/06:16am 12.8 3.4 11.5 92 0.7 NNW 52 70 28 38 991.7 - 25.0
31/06:13am 12.8 3.0 11.5 92 0.7 NNW 54 70 29 38 991.5 - 25.0
31/06:01am 12.7 2.9 11.6 93 0.6 NNW 54 74 29 40 991.9 - 25.0
31/06:00am 12.7 3.3 11.6 93 0.6 NNW 52 67 28 36 992.0 992.0 25.0
31/05:30am 13.1 3.3 11.5 90 0.8 NNW 54 72 29 39 992.3 - 24.4
31/05:20am 12.9 3.1 11.3 90 0.8 NNW 54 72 29 39 992.6 - 24.2
31/05:18am 13.0 3.5 11.2 89 0.9 NNW 52 67 28 36 992.7 - 24.2
31/05:00am 13.4 2.2 11.1 86 1.2 NW 61 85 33 46 992.8 992.8 24.2
31/04:30am 13.7 1.3 11.0 84 1.4 NW 67 87 36 47 993.2 - 24.0
31/04:00am 13.6 0.9 11.3 86 1.2 NW 69 91 37 49 992.9 992.9 24.0
31/03:59am 13.6 0.9 11.3 86 1.2 NW 69 91 37 49 992.8 - 24.0
31/03:56am 13.4 0.8 11.5 88 1.0 NW 69 85 37 46 992.9 - 24.0
31/03:47am 13.4 1.6 11.8 90 0.9 NNW 65 83 35 45 993.1 - 24.0
31/03:46am 13.5 1.4 12.1 91 0.8 NNW 67 76 36 41 993.0 - 24.0
31/03:42am 13.2 4.7 12.1 93 0.6 NW 48 67 26 36 993.5 - 24.0
31/03:30am 12.3 3.6 11.4 94 0.5 WNW 48 63 26 34 994.1 - 23.8
31/03:00am 12.4 2.6 11.3 93 0.6 NW 54 67 29 36 994.7 994.7 17.4
31/02:45am 12.4 2.9 11.1 92 0.7 WNW 52 72 28 39 994.7 - 16.2
31/02:30am 12.5 3.1 11.4 93 0.6 NW 52 69 28 37 994.9 - 16.2
31/02:00am 12.5 0.9 11.2 92 0.7 NW 63 83 34 45 995.2 995.2 15.6
31/01:56am 12.7 1.9 11.4 92 0.7 NW 59 83 32 45 995.2 - 15.6
31/01:30am 12.5 3.5 11.6 94 0.5 NW 50 69 27 37 995.8 - 14.8
31/01:29am 12.4 3.4 11.5 94 0.5 NW 50 69 27 37 995.8 - 14.6
31/01:17am 12.8 2.7 11.7 93 0.6 NW 56 72 30 39 995.7 - 10.2
31/01:14am 12.9 3.2 11.8 93 0.6 NW 54 72 29 39 995.5 - 10.2
31/01:09am 12.9 3.2 11.8 93 0.6 NW 54 69 29 37 995.6 - 10.2
31/01:00am 12.6 3.3 11.7 94 0.5 NW 52 63 28 34 995.9 995.9 10.2
31/12:32am 12.5 1.7 11.4 93 0.6 NW 59 78 32 42 996.2 - 9.0
31/12:30am 12.5 1.7 11.4 93 0.6 NW 59 76 32 41 996.5 - 8.6
31/12:13am 12.7 2.3 11.4 92 0.7 NW 57 76 31 41 996.8 - 7.6
31/12:00am 13.0 1.4 11.2 89 1.0 NNW 63 78 34 42 996.9 996.9 7.2
 
Date/Time
EST
Temp
°C
App
Temp
°C
Dew
Point
Rel
Hum
%
Delta-T
°C
Wind Press
QNH
hPa
Press
MSL
hPa
Rain
since 9 am
mm
Dir
 
Spd
km/h
Gust
km/h
Spd
kts
Gust
kts
30/11:59pm 13.0 1.4 11.2 89 0.9 NNW 63 78 34 42 996.8 - 7.2
30/11:30pm 13.4 2.7 11.5 88 1.0 NNW 59 72 32 39 997.0 - 7.2
30/11:03pm 13.3 4.1 11.0 86 1.2 NW 50 69 27 37 997.6 - 6.4
30/11:00pm 13.4 3.5 11.1 86 1.2 NW 54 69 29 37 997.8 997.8 6.2
30/10:56pm 13.4 3.4 10.9 85 1.3 NW 54 69 29 37 997.7 - 6.2
30/10:30pm 13.5 3.1 10.7 83 1.5 NW 56 76 30 41 997.9 - 6.2
30/10:16pm 13.2 4.1 11.1 87 1.1 NW 50 85 27 46 998.3 - 6.2
30/10:06pm 13.2 4.1 11.3 88 1.0 NW 50 61 27 33 998.6 - 6.2
30/10:00pm 13.1 4.0 11.3 89 1.0 NW 50 69 27 37 998.7 998.7 6.2
30/09:54pm 13.0 3.9 11.1 88 1.0 NW 50 69 27 37 998.6 - 6.2
30/09:42pm 13.1 3.1 10.8 86 1.2 NW 54 67 29 36 998.8 - 6.0
30/09:30pm 13.2 3.9 10.7 85 1.3 NW 50 65 27 35 998.8 - 6.0
30/09:00pm 12.8 4.8 11.0 89 0.9 NW 44 56 24 30 999.0 999.0 6.0
30/08:30pm 13.2 5.7 10.9 86 1.2 NW 41 54 22 29 999.5 - 6.0
30/08:00pm 13.4 4.9 10.8 84 1.4 WNW 46 57 25 31 999.8 999.8 6.0
30/07:44pm 13.2 2.6 10.6 84 1.4 NW 57 76 31 41 999.6 - 6.0
30/07:30pm 13.4 1.3 10.8 84 1.4 NW 65 78 35 42 999.2 - 6.0
30/07:26pm 13.4 0.6 10.9 85 1.3 NW 69 78 37 42 999.1 - 6.0
30/07:23pm 13.5 5.1 11.2 86 1.2 NW 46 72 25 39 999.4 - 6.0
30/07:16pm 13.4 5.5 11.3 87 1.1 NW 44 59 24 32 999.4 - 6.0
30/07:00pm 13.1 5.3 11.3 89 1.0 NW 43 61 23 33 999.7 999.7 6.0
30/06:55pm 13.2 5.4 11.3 88 1.0 NW 43 61 23 33 999.8 - 5.8
30/06:53pm 13.3 5.5 11.2 87 1.1 NW 43 54 23 29 999.8 - 5.8
30/06:33pm 13.4 6.3 10.9 85 1.3 NW 39 57 21 31 1000.1 - 5.6
30/06:30pm 13.4 5.9 10.9 85 1.3 NW 41 57 22 31 1000.1 - 5.6

Other Formats:

Comma delimited format used in spreadsheet applications
http://www.bom.gov.au/fwo/IDT60801/IDT60801.95960.axf

JavaScript Object Notation format (JSON) in row-major order
http://www.bom.gov.au/fwo/IDT60801/IDT60801.95960.json